• Join FlightAware (Why Join?)
  • Login
  • US Flag 
04:16PM EDT


 

Airport Tracker/Info


-or-


 

Live Flight TrackerFlight Track Log ✈ BER6776 ✈ 18-Apr-2013 ✈ EDDL / DUS - EDDN / NUE

Flight Track Log - Related Links

Times and Time Zones

All times are in EDT time to prevent confusion due to time zone crossing. See the BER6776 flight status page for this flight to view local times or setup timezone preferences in your user account.

Time Position Orientation Groundspeed Altitude Reporting Facility
EDT Latitude Longitude Course Direction KTS MPH feet Rate Location/Type
03:26PM 50.2257 9.4122 121° Southeast  Level Estimated
03:27PM 50.1880 9.5013 123° Southeast  Level Estimated
03:28PM 50.1502 9.5903 124° Southeast  Level Estimated
03:29PM 50.1123 9.6791 124° Southeast  Level Estimated
03:30PM 50.0744 9.7678 124° Southeast  Level Estimated
03:31PM 50.0364 9.8563 124° Southeast  Level Estimated
03:32PM 49.9983 9.9447 124° Southeast  Level Estimated
03:33PM 49.9602 10.0329 124° Southeast  Level Estimated
03:34PM 49.9219 10.1210 124° Southeast  Level Estimated
03:35PM 49.8837 10.2090 124° Southeast  Level Estimated
03:36PM 49.8453 10.2968 124° Southeast  Level Estimated
03:37PM 49.8069 10.3845 124° Southeast  Level Estimated
03:38PM 49.7685 10.4721 124° Southeast  Level Estimated
03:39PM 49.7299 10.5595 124° Southeast  Level Estimated
03:40PM 49.6913 10.6468 124° Southeast  Level Estimated
03:41PM 49.6526 10.7339 124° Southeast  Level Estimated
03:42PM 49.6139 10.8209 124° Southeast  Level Estimated
03:43PM 49.5751 10.9077 125° Southeast  Level Estimated
03:44PM 49.5363 10.9944 125° Southeast  Level Estimated
03:45PM 49.4986 11.0781 125° Southeast  Level Estimated
03:46PM 49.4986 11.0781 327° Northwest  Level Estimated
03:47PM 49.4986 11.0781 327° Northwest  Level Estimated
03:48PM 49.4986 11.0781 327° Northwest  Level Estimated
03:49PM 49.4986 11.0781 327° Northwest  Level Estimated
03:50PM 49.4986 11.0781 327° Northwest  Level Estimated
03:51PM 49.4986 11.0781 327° Northwest  Level Estimated
03:52PM 49.4986 11.0781 327° Northwest  Level Estimated
03:53PM 49.4986 11.0781 327° Northwest  Level Estimated
03:54PM 49.4986 11.0781 327° Northwest  Level Estimated
03:55PM 49.4986 11.0781 327° Northwest  Level Estimated
03:56PM 49.4986 11.0781 327° Northwest  Level Estimated
03:57PM 49.4986 11.0781 327° Northwest  Level Estimated
03:58PM 49.4986 11.0781 327° Northwest  Level Estimated
03:59PM 49.4986 11.0781 327° Northwest  Level Estimated
04:00PM 49.4986 11.0781 327° Northwest  Level Estimated
04:01PM 49.4986 11.0781 327° Northwest  Level Estimated